createdAt,value
2022-08-10T00:01:34.458Z,17.91
2022-08-10T00:04:02.109Z,17.99
2022-08-10T00:06:28.927Z,17.95
2022-08-10T00:08:55.712Z,17.97
2022-08-10T00:11:22.709Z,18.00
2022-08-10T00:13:49.459Z,17.95
2022-08-10T00:16:16.263Z,17.86
2022-08-10T00:18:42.977Z,17.84
2022-08-10T00:21:10.677Z,17.70
2022-08-10T00:23:37.964Z,17.62
2022-08-10T00:26:05.799Z,17.51
2022-08-10T00:28:32.662Z,17.58
2022-08-10T00:30:59.781Z,17.55
2022-08-10T00:33:26.563Z,17.61
2022-08-10T00:35:53.330Z,17.59
2022-08-10T00:38:20.152Z,17.75
2022-08-10T00:40:47.072Z,17.79
2022-08-10T00:43:13.793Z,17.68
2022-08-10T00:45:40.618Z,17.64
2022-08-10T00:48:07.367Z,17.66
2022-08-10T00:50:34.564Z,17.72
2022-08-10T00:53:01.703Z,17.61
2022-08-10T00:55:28.807Z,17.55
2022-08-10T00:57:55.931Z,17.51
2022-08-10T01:00:24.380Z,17.49
2022-08-10T01:02:52.001Z,17.54
2022-08-10T01:05:20.659Z,17.48
2022-08-10T01:07:59.679Z,17.33
2022-08-10T01:10:36.230Z,17.45
2022-08-10T01:13:19.501Z,17.37
2022-08-10T01:15:53.188Z,17.36
2022-08-10T01:18:37.521Z,17.37
2022-08-10T01:21:50.945Z,17.31
2022-08-10T01:25:08.255Z,17.28
2022-08-10T01:27:50.459Z,17.32
2022-08-10T01:30:19.128Z,17.38
2022-08-10T01:32:57.223Z,17.30
2022-08-10T01:35:27.048Z,17.33
2022-08-10T01:38:09.416Z,17.24
2022-08-10T01:40:40.131Z,17.17
2022-08-10T01:43:09.899Z,17.05
2022-08-10T01:45:45.612Z,17.06
2022-08-10T01:48:31.012Z,17.07
2022-08-10T01:51:23.916Z,17.03
2022-08-10T01:54:12.980Z,16.92
2022-08-10T01:56:46.223Z,17.00
2022-08-10T01:59:22.221Z,17.13
2022-08-10T02:01:52.738Z,17.25
2022-08-10T02:04:20.430Z,17.18
2022-08-10T02:06:51.926Z,17.36
2022-08-10T02:09:31.572Z,17.29
2022-08-10T02:12:07.635Z,17.22
2022-08-10T02:14:48.130Z,17.17
2022-08-10T02:17:57.015Z,17.18
2022-08-10T02:20:10.736Z,17.06
2022-08-10T02:22:39.456Z,16.99
2022-08-10T02:25:08.748Z,16.88
2022-08-10T02:27:40.801Z,16.76
2022-08-10T02:30:08.542Z,16.71
2022-08-10T02:32:36.229Z,16.74
2022-08-10T02:35:07.507Z,16.85
2022-08-10T02:37:37.983Z,16.74
2022-08-10T02:40:05.163Z,16.79
2022-08-10T02:45:27.326Z,16.76
2022-08-10T02:45:41.460Z,16.66
2022-08-10T02:48:13.867Z,16.61
2022-08-10T02:50:42.195Z,16.58
2022-08-10T02:53:54.737Z,16.56
2022-08-10T02:56:08.119Z,16.60
2022-08-10T02:58:41.622Z,16.54
2022-08-10T03:01:11.257Z,16.59
2022-08-10T03:03:45.502Z,16.56
2022-08-10T03:06:16.304Z,16.55
2022-08-10T03:08:44.043Z,16.59
2022-08-10T03:11:18.583Z,16.67
2022-08-10T03:14:07.062Z,16.64
2022-08-10T03:16:33.977Z,16.59
2022-08-10T03:19:03.998Z,16.49
2022-08-10T03:21:31.299Z,16.58
2022-08-10T03:23:59.281Z,16.63
2022-08-10T03:26:26.314Z,16.61
2022-08-10T03:28:53.327Z,16.57
2022-08-10T03:31:20.541Z,16.64
2022-08-10T03:33:47.585Z,16.57
2022-08-10T03:36:43.772Z,16.57
2022-08-10T03:39:01.466Z,16.56
2022-08-10T03:41:55.758Z,16.49
2022-08-10T03:44:25.544Z,16.39
2022-08-10T03:46:53.230Z,16.39
2022-08-10T03:49:20.674Z,16.42
2022-08-10T03:51:49.438Z,16.31
2022-08-10T03:54:17.415Z,16.27
2022-08-10T03:56:45.067Z,16.25
2022-08-10T03:59:13.661Z,16.21
2022-08-10T04:02:45.178Z,16.14
2022-08-10T04:04:31.953Z,16.14
2022-08-10T04:06:59.722Z,16.25
2022-08-10T04:09:54.637Z,16.20
2022-08-10T04:12:19.291Z,16.23
2022-08-10T04:14:50.867Z,16.23
2022-08-10T04:17:56.990Z,16.16
2022-08-10T04:20:17.238Z,16.43
2022-08-10T04:22:45.084Z,16.34
2022-08-10T04:25:12.685Z,16.43
2022-08-10T04:27:39.746Z,16.33
2022-08-10T04:30:07.172Z,16.24
2022-08-10T04:32:34.561Z,16.27
2022-08-10T04:35:04.091Z,16.27
2022-08-10T04:37:31.536Z,16.26
2022-08-10T04:39:58.299Z,16.18
2022-08-10T04:42:25.287Z,16.21
2022-08-10T04:44:52.055Z,16.23
2022-08-10T04:47:57.282Z,16.23
2022-08-10T04:50:06.449Z,16.18
2022-08-10T04:52:33.263Z,16.17
2022-08-10T04:55:00.493Z,16.24
2022-08-10T04:57:27.418Z,16.33
2022-08-10T04:59:54.235Z,16.36
2022-08-10T05:02:29.708Z,16.35
2022-08-10T05:04:59.091Z,16.45
2022-08-10T05:07:26.125Z,16.52
2022-08-10T05:10:04.971Z,16.62
2022-08-10T05:12:36.540Z,16.87
2022-08-10T05:15:08.570Z,16.95
2022-08-10T05:17:36.592Z,17.07
2022-08-10T05:20:06.759Z,16.98
2022-08-10T05:22:44.548Z,16.96
2022-08-10T05:25:16.366Z,16.93
2022-08-10T05:27:43.987Z,16.91
2022-08-10T05:30:13.839Z,16.91
2022-08-10T05:32:56.779Z,17.01
2022-08-10T05:35:27.737Z,17.05
2022-08-10T05:38:13.137Z,17.15
2022-08-10T05:40:46.736Z,17.06
2022-08-10T05:43:19.521Z,17.08
2022-08-10T05:46:16.811Z,17.19
2022-08-10T05:48:54.100Z,17.14
2022-08-10T05:51:22.651Z,17.17
2022-08-10T05:54:03.207Z,17.26
2022-08-10T05:56:56.663Z,17.37
2022-08-10T06:00:12.614Z,17.19
2022-08-10T06:02:32.001Z,16.99
2022-08-10T06:05:10.443Z,16.96
2022-08-10T06:08:04.696Z,16.95
2022-08-10T06:10:35.474Z,17.03
2022-08-10T06:13:26.822Z,17.05
2022-08-10T06:16:01.375Z,17.13
2022-08-10T06:18:28.256Z,17.14
2022-08-10T06:20:55.136Z,17.27
2022-08-10T06:23:23.455Z,17.38
2022-08-10T06:26:10.546Z,17.49
2022-08-10T06:28:44.235Z,17.68
2022-08-10T06:31:46.759Z,17.64
2022-08-10T06:34:19.841Z,17.65
2022-08-10T06:36:47.324Z,17.73
2022-08-10T06:39:32.517Z,17.80
2022-08-10T06:42:26.038Z,17.83
2022-08-10T06:45:04.002Z,17.92
2022-08-10T06:48:14.942Z,18.03
2022-08-10T06:50:44.887Z,18.00
2022-08-10T06:53:16.716Z,18.21
2022-08-10T06:55:55.216Z,18.37
2022-08-10T06:58:26.960Z,18.47
2022-08-10T07:00:55.314Z,18.50
2022-08-10T07:03:26.785Z,18.64
2022-08-10T07:05:54.849Z,18.70
2022-08-10T07:08:23.561Z,18.75
2022-08-10T07:10:51.507Z,18.78
2022-08-10T07:14:14.113Z,18.94
2022-08-10T07:16:11.760Z,19.04
2022-08-10T07:18:39.078Z,19.13
2022-08-10T07:21:07.478Z,19.21
2022-08-10T07:23:58.807Z,19.27
2022-08-10T07:26:22.483Z,19.38
2022-08-10T07:28:51.163Z,19.40
2022-08-10T07:31:55.156Z,19.45
2022-08-10T07:34:10.620Z,19.52
2022-08-10T07:36:38.842Z,19.59
2022-08-10T07:39:06.370Z,19.61
2022-08-10T07:41:33.520Z,19.65
2022-08-10T07:44:04.324Z,19.72
2022-08-10T07:46:33.859Z,19.82
2022-08-10T07:49:19.011Z,19.97
2022-08-10T07:51:54.363Z,19.92
2022-08-10T07:54:23.587Z,19.94
2022-08-10T07:56:53.145Z,19.93
2022-08-10T07:59:33.266Z,19.90
2022-08-10T08:02:01.133Z,20.00
2022-08-10T08:04:28.907Z,20.14
2022-08-10T08:06:55.937Z,20.20
2022-08-10T08:09:23.741Z,20.22
2022-08-10T08:11:51.775Z,20.28
2022-08-10T08:14:19.291Z,20.46
2022-08-10T08:16:48.224Z,20.49
2022-08-10T08:19:37.780Z,20.61
2022-08-10T08:24:06.967Z,20.64
2022-08-10T08:24:52.674Z,20.64
2022-08-10T08:27:20.721Z,20.70
2022-08-10T08:29:49.379Z,20.85
2022-08-10T08:32:19.683Z,20.89
2022-08-10T08:34:47.024Z,20.93
2022-08-10T08:38:28.779Z,20.96
2022-08-10T08:40:06.225Z,20.97
2022-08-10T08:42:51.897Z,21.14
2022-08-10T08:45:22.634Z,21.22
2022-08-10T08:48:05.379Z,21.19
2022-08-10T08:50:46.552Z,21.34
2022-08-10T08:53:22.277Z,21.51
2022-08-10T08:56:07.519Z,21.52
2022-08-10T08:58:58.639Z,21.53
2022-08-10T09:01:37.967Z,21.74
2022-08-10T09:04:20.062Z,21.76
2022-08-10T09:07:59.196Z,21.86
2022-08-10T09:10:14.057Z,21.96
2022-08-10T09:12:43.862Z,21.98
2022-08-10T09:18:04.986Z,22.11
2022-08-10T09:20:59.064Z,22.04
2022-08-10T09:24:05.429Z,21.98
2022-08-10T09:26:28.231Z,22.04
2022-08-10T09:29:04.574Z,22.20
2022-08-10T09:33:05.372Z,22.18
2022-08-10T09:36:24.062Z,22.23
2022-08-10T09:38:01.658Z,22.33
2022-08-10T09:41:00.804Z,22.43
2022-08-10T09:43:38.643Z,22.39
2022-08-10T09:46:21.626Z,22.42
2022-08-10T09:49:53.281Z,22.47
2022-08-10T09:52:22.133Z,22.54
2022-08-10T09:55:15.611Z,22.66
2022-08-10T09:57:58.636Z,22.61
2022-08-10T10:00:32.362Z,22.77
2022-08-10T10:03:26.065Z,22.79
2022-08-10T10:06:28.126Z,22.97
2022-08-10T10:09:27.388Z,23.21
2022-08-10T10:12:09.998Z,23.37
2022-08-10T10:15:24.796Z,23.42
2022-08-10T10:18:07.702Z,23.44
2022-08-10T10:20:53.140Z,23.49
2022-08-10T10:24:21.782Z,23.46
2022-08-10T10:26:54.396Z,23.61
2022-08-10T10:29:57.946Z,23.63
2022-08-10T10:32:45.385Z,23.63
2022-08-10T10:35:16.790Z,23.78
2022-08-10T10:38:02.103Z,23.91
2022-08-10T10:40:48.232Z,23.87
2022-08-10T10:43:29.728Z,23.95
2022-08-10T10:46:23.300Z,24.02
2022-08-10T10:49:07.809Z,24.02
2022-08-10T10:51:42.528Z,24.27
2022-08-10T10:54:32.016Z,24.52
2022-08-10T10:57:07.686Z,24.61
2022-08-10T10:59:57.724Z,24.64
2022-08-10T11:02:51.053Z,24.78
2022-08-10T11:05:34.555Z,24.96
2022-08-10T11:08:13.025Z,25.14
2022-08-10T11:10:56.422Z,25.14
2022-08-10T11:14:24.549Z,25.15
2022-08-10T11:16:21.819Z,25.24
2022-08-10T11:18:51.881Z,25.33
2022-08-10T11:21:38.872Z,25.42
2022-08-10T11:24:46.921Z,25.47
2022-08-10T11:27:05.902Z,25.36
2022-08-10T11:29:42.598Z,25.40
2022-08-10T11:32:20.380Z,25.64
2022-08-10T11:35:10.895Z,25.94
2022-08-10T11:38:34.159Z,25.99
2022-08-10T11:40:45.556Z,26.09
2022-08-10T11:43:24.083Z,26.20
2022-08-10T11:46:07.835Z,26.41
2022-08-10T11:48:53.823Z,26.61
2022-08-10T11:51:35.979Z,26.56
2022-08-10T11:54:10.632Z,26.50
2022-08-10T11:56:59.922Z,26.57
2022-08-10T11:59:50.305Z,26.45
2022-08-10T12:02:20.614Z,26.72
2022-08-10T12:04:49.013Z,26.90
2022-08-10T12:10:01.570Z,27.11
2022-08-10T12:10:13.546Z,27.26
2022-08-10T12:13:08.730Z,27.33
2022-08-10T12:15:43.954Z,27.51
2022-08-10T12:18:24.428Z,27.35
2022-08-10T12:20:56.139Z,27.51
2022-08-10T12:23:27.699Z,27.75
2022-08-10T12:26:14.203Z,27.92
2022-08-10T12:28:59.683Z,27.91
2022-08-10T12:31:41.144Z,28.01
2022-08-10T12:34:19.425Z,28.19
2022-08-10T12:36:56.455Z,27.93
2022-08-10T12:39:27.613Z,27.78
2022-08-10T12:42:06.228Z,27.89
2022-08-10T12:44:43.514Z,28.18
2022-08-10T12:47:19.282Z,28.40
2022-08-10T12:50:31.149Z,28.67
2022-08-10T12:53:06.347Z,28.72
2022-08-10T12:55:34.229Z,28.84
2022-08-10T12:58:05.541Z,28.96
2022-08-10T13:01:14.733Z,29.25
2022-08-10T13:04:21.915Z,29.40
2022-08-10T13:06:26.875Z,29.13
2022-08-10T13:09:09.356Z,29.13
2022-08-10T13:12:38.988Z,29.07
2022-08-10T13:14:46.741Z,28.87
2022-08-10T13:17:14.846Z,28.95
2022-08-10T13:19:56.396Z,29.05
2022-08-10T13:22:32.144Z,29.26
2022-08-10T13:25:01.688Z,29.46
2022-08-10T13:28:00.806Z,29.56
2022-08-10T13:30:33.678Z,29.67
2022-08-10T13:33:06.538Z,29.69
2022-08-10T13:35:34.257Z,29.63
2022-08-10T13:38:04.131Z,29.94
2022-08-10T13:40:32.450Z,30.11
2022-08-10T13:43:01.063Z,30.24
2022-08-10T13:45:28.497Z,30.37
2022-08-10T13:48:08.695Z,30.50
2022-08-10T13:50:37.396Z,30.77
2022-08-10T13:53:11.510Z,30.78
2022-08-10T13:55:54.285Z,30.95
2022-08-10T13:58:34.406Z,31.16
2022-08-10T14:01:09.484Z,30.96
2022-08-10T14:03:39.445Z,30.93
2022-08-10T14:06:09.538Z,30.78
2022-08-10T14:08:38.053Z,30.97
2022-08-10T14:11:11.029Z,31.03
2022-08-10T14:13:58.792Z,31.23
2022-08-10T14:16:26.975Z,31.22
2022-08-10T14:18:57.225Z,30.87
2022-08-10T14:21:24.045Z,31.13
2022-08-10T14:23:52.958Z,31.56
2022-08-10T14:26:26.816Z,31.21
2022-08-10T14:28:57.503Z,31.31
2022-08-10T14:31:30.402Z,31.42
2022-08-10T14:33:58.501Z,31.11
2022-08-10T14:36:43.284Z,30.87
2022-08-10T14:39:21.229Z,30.97
2022-08-10T14:42:02.843Z,31.04
2022-08-10T14:44:44.359Z,31.17
2022-08-10T14:47:52.298Z,31.21
2022-08-10T14:50:00.516Z,31.68
2022-08-10T14:52:27.752Z,32.09
2022-08-10T14:54:55.794Z,32.43
2022-08-10T14:57:23.816Z,32.46
2022-08-10T15:00:29.398Z,32.33
2022-08-10T15:02:59.705Z,32.47
2022-08-10T15:05:39.695Z,32.72
2022-08-10T15:08:09.211Z,32.95
2022-08-10T15:10:36.496Z,32.90
2022-08-10T15:13:06.833Z,32.99
2022-08-10T15:16:11.438Z,33.02
2022-08-10T15:18:58.223Z,33.06
2022-08-10T15:21:37.825Z,32.92
2022-08-10T15:24:15.943Z,32.99
2022-08-10T15:26:57.526Z,32.93
2022-08-10T15:29:26.093Z,32.91
2022-08-10T15:32:12.283Z,32.72
2022-08-10T15:34:57.787Z,32.60
2022-08-10T15:37:40.853Z,32.48
2022-08-10T15:40:23.743Z,32.37
2022-08-10T15:43:02.402Z,32.34
2022-08-10T15:45:33.763Z,32.12
2022-08-10T15:48:03.781Z,31.59
2022-08-10T15:50:40.058Z,31.52
2022-08-10T15:53:15.869Z,31.56
2022-08-10T15:55:56.628Z,31.44
2022-08-10T15:58:39.900Z,31.17
2022-08-10T16:02:14.620Z,31.08
2022-08-10T16:04:32.307Z,30.94
2022-08-10T16:07:06.204Z,30.66
2022-08-10T16:10:26.231Z,30.61
2022-08-10T16:12:40.933Z,30.68
2022-08-10T16:15:12.761Z,30.76
2022-08-10T16:17:55.637Z,30.87
2022-08-10T16:20:53.527Z,30.92
2022-08-10T16:23:34.444Z,31.06
2022-08-10T16:26:14.784Z,30.73
2022-08-10T16:28:55.628Z,30.94
2022-08-10T16:31:24.960Z,31.14
2022-08-10T16:33:55.051Z,31.17
2022-08-10T16:36:23.627Z,31.22
2022-08-10T16:38:50.843Z,30.99
2022-08-10T16:42:03.080Z,31.06
2022-08-10T16:44:09.603Z,31.14
2022-08-10T16:46:41.643Z,31.02
2022-08-10T16:49:09.096Z,30.53
2022-08-10T16:51:35.867Z,30.25
2022-08-10T16:54:03.602Z,30.25
2022-08-10T16:56:33.999Z,30.17
2022-08-10T16:59:17.511Z,29.79
2022-08-10T17:01:53.589Z,29.54
2022-08-10T17:04:22.745Z,29.34
2022-08-10T17:06:56.486Z,29.38
2022-08-10T17:09:27.373Z,29.36
2022-08-10T17:11:55.735Z,29.30
2022-08-10T17:14:24.803Z,29.23
2022-08-10T17:16:57.511Z,29.33
2022-08-10T17:19:25.923Z,29.38
2022-08-10T17:21:59.130Z,29.42
2022-08-10T17:24:39.456Z,29.50
2022-08-10T17:28:03.775Z,29.43
2022-08-10T17:30:02.800Z,29.21
2022-08-10T17:32:43.875Z,28.96
2022-08-10T17:35:14.439Z,28.93
2022-08-10T17:37:48.079Z,28.75
2022-08-10T17:40:18.111Z,28.78
2022-08-10T17:42:46.532Z,28.72
2022-08-10T17:45:46.327Z,28.59
2022-08-10T17:48:10.598Z,28.51
2022-08-10T17:50:38.102Z,28.42
2022-08-10T17:53:10.865Z,28.42
2022-08-10T17:55:38.918Z,28.36
2022-08-10T17:58:12.451Z,28.22
2022-08-10T18:00:42.551Z,28.11
2022-08-10T18:03:15.785Z,27.96
2022-08-10T18:05:55.988Z,27.87
2022-08-10T18:08:32.864Z,27.82
2022-08-10T18:11:02.102Z,27.67
2022-08-10T18:13:55.993Z,27.50
2022-08-10T18:16:23.307Z,27.35
2022-08-10T18:19:00.190Z,27.20
2022-08-10T18:21:30.862Z,26.91
2022-08-10T18:24:09.216Z,26.72
2022-08-10T18:26:41.342Z,26.52
2022-08-10T18:29:18.634Z,26.30
2022-08-10T18:31:47.952Z,26.13
2022-08-10T18:34:20.302Z,26.01
2022-08-10T18:36:47.959Z,25.84
2022-08-10T18:39:16.640Z,25.73
2022-08-10T18:42:00.623Z,25.54
2022-08-10T18:44:35.805Z,25.38
2022-08-10T18:47:35.002Z,25.07
2022-08-10T18:50:07.151Z,24.93
2022-08-10T18:52:35.042Z,24.81
2022-08-10T18:55:14.424Z,24.69
2022-08-10T18:58:11.861Z,24.61
2022-08-10T19:00:57.354Z,24.50
2022-08-10T19:03:54.124Z,24.39
2022-08-10T19:06:34.735Z,24.34
2022-08-10T19:09:45.412Z,24.25
2022-08-10T19:12:30.337Z,24.20
2022-08-10T19:15:16.659Z,24.14
2022-08-10T19:18:06.160Z,24.14
2022-08-10T19:20:49.582Z,23.96
2022-08-10T19:23:44.098Z,24.04
2022-08-10T19:26:44.054Z,23.87
2022-08-10T19:30:11.622Z,23.73
2022-08-10T19:32:47.352Z,23.57
2022-08-10T19:36:03.279Z,23.50
2022-08-10T19:38:37.215Z,23.40
2022-08-10T19:41:32.242Z,23.26
2022-08-10T19:44:37.005Z,23.21
2022-08-10T19:47:15.054Z,23.07
2022-08-10T19:50:04.905Z,23.01
2022-08-10T19:52:43.067Z,22.86
2022-08-10T19:55:37.774Z,22.78
2022-08-10T19:58:21.154Z,22.69
2022-08-10T20:00:57.420Z,22.63
2022-08-10T20:03:46.076Z,22.59
2022-08-10T20:06:19.408Z,22.56
2022-08-10T20:09:11.022Z,22.51
2022-08-10T20:12:00.650Z,22.50
2022-08-10T20:14:43.863Z,22.49
2022-08-10T20:17:25.641Z,22.42
2022-08-10T20:19:58.908Z,22.37
2022-08-10T20:22:33.818Z,22.29
2022-08-10T20:25:06.546Z,22.25
2022-08-10T20:28:01.246Z,22.20
2022-08-10T20:30:32.045Z,22.12
2022-08-10T20:33:01.028Z,21.98
2022-08-10T20:35:31.604Z,22.03
2022-08-10T20:38:08.816Z,21.99
2022-08-10T20:40:39.441Z,21.95
2022-08-10T20:43:31.631Z,21.86
2022-08-10T20:46:25.147Z,21.80
2022-08-10T20:49:41.856Z,21.70
2022-08-10T20:52:08.999Z,21.69
2022-08-10T20:54:43.020Z,21.67
2022-08-10T20:57:55.608Z,21.60
2022-08-10T21:00:23.154Z,21.55
2022-08-10T21:03:20.856Z,21.47
2022-08-10T21:06:27.348Z,21.39
2022-08-10T21:09:15.234Z,21.37
2022-08-10T21:12:15.642Z,21.33
2022-08-10T21:15:07.588Z,21.31
2022-08-10T21:17:43.894Z,21.32
2022-08-10T21:20:45.114Z,21.29
2022-08-10T21:23:14.927Z,21.29
2022-08-10T21:25:59.132Z,21.25
2022-08-10T21:28:34.969Z,21.24
2022-08-10T21:31:38.523Z,21.16
2022-08-10T21:34:37.471Z,21.14
2022-08-10T21:37:14.459Z,21.05
2022-08-10T21:39:47.015Z,21.02
2022-08-10T21:42:42.883Z,20.93
2022-08-10T21:46:19.703Z,20.92
2022-08-10T21:49:37.346Z,20.84
2022-08-10T21:52:31.637Z,20.83
2022-08-10T21:55:55.833Z,20.80
2022-08-10T21:58:51.463Z,20.78
2022-08-10T22:01:51.256Z,20.72
2022-08-10T22:04:38.638Z,20.65
2022-08-10T22:07:27.119Z,20.66
2022-08-10T22:10:13.890Z,20.72
2022-08-10T22:13:03.191Z,20.67
2022-08-10T22:16:05.682Z,20.68
2022-08-10T22:19:03.359Z,20.62
2022-08-10T22:21:54.843Z,20.58
2022-08-10T22:25:02.290Z,20.57
2022-08-10T22:27:54.794Z,20.57
2022-08-10T22:30:57.874Z,20.69
2022-08-10T22:34:01.253Z,20.61
2022-08-10T22:37:11.394Z,20.47
2022-08-10T22:40:20.857Z,20.38
2022-08-10T22:43:11.084Z,20.40
2022-08-10T22:46:05.342Z,20.31
2022-08-10T22:48:58.533Z,20.26
2022-08-10T22:51:32.564Z,20.19
2022-08-10T22:54:31.238Z,20.13
2022-08-10T22:57:20.661Z,20.07
2022-08-10T22:59:48.070Z,20.09
2022-08-10T23:02:28.986Z,20.02
2022-08-10T23:05:02.838Z,20.01
2022-08-10T23:07:32.922Z,19.95
2022-08-10T23:10:11.865Z,19.89
2022-08-10T23:12:50.331Z,19.87
2022-08-10T23:15:44.437Z,19.99
2022-08-10T23:18:34.929Z,19.97
2022-08-10T23:21:02.527Z,19.98
2022-08-10T23:23:36.920Z,19.88
2022-08-10T23:26:05.627Z,19.85
2022-08-10T23:28:55.507Z,19.78
2022-08-10T23:31:59.169Z,19.75
2022-08-10T23:34:11.366Z,19.71
2022-08-10T23:36:39.330Z,19.78
2022-08-10T23:39:25.871Z,19.77
2022-08-10T23:42:03.115Z,19.86
2022-08-10T23:44:41.847Z,19.78
2022-08-10T23:47:09.663Z,19.87
2022-08-10T23:49:37.691Z,19.89
2022-08-10T23:52:28.188Z,19.73
2022-08-10T23:55:05.354Z,19.89
2022-08-10T23:57:34.345Z,19.87
